Time;durP1;ratioP1;P1;durP2;ratioP2;P2;SDS_P1;SDS_P2;PMS_P1;PMS_P2;Temp;Humidity;BMP_temperature;BMP_pressure;BME280_temperature;BME280_humidity;BME280_pressure;Samples;Min_cycle;Max_cycle;Signal;HPM_P1;HPM_P2
2024/02/13 00:00:33;;;;;;;3.55;2.30;;;;;;;21.34;42.68;101295.66;4969004;28;97327;-77
2024/02/13 00:02:59;;;;;;;3.58;2.15;;;;;;;21.32;42.89;101290.44;4970956;28;96946;-77
2024/02/13 00:05:24;;;;;;;4.20;2.38;;;;;;;21.33;43.06;101305.41;4968391;28;96715;-77
2024/02/13 00:07:50;;;;;;;3.85;1.70;;;;;;;21.33;42.96;101304.56;4965173;28;96815;-77
2024/02/13 00:10:16;;;;;;;3.63;1.92;;;;;;;21.33;42.81;101317.81;4959352;28;97676;-77
2024/02/13 00:12:42;;;;;;;4.43;2.45;;;;;;;21.33;42.75;101321.34;4966313;28;98858;-76
2024/02/13 00:15:11;;;;;;;3.90;1.75;;;;;;;21.32;42.88;101316.97;4959826;28;96647;-77
2024/02/13 00:17:36;;;;;;;3.40;1.45;;;;;;;21.31;42.79;101323.16;4964558;28;96763;-77
2024/02/13 00:20:08;;;;;;;4.43;2.42;;;;;;;21.31;42.69;101323.16;4966315;28;96759;-77
2024/02/13 00:22:35;;;;;;;2.90;1.50;;;;;;;21.30;42.74;101329.34;4964215;28;97301;-77
2024/02/13 00:25:01;;;;;;;3.08;1.60;;;;;;;21.31;42.90;101325.81;4963683;28;99209;-77
2024/02/13 00:27:26;;;;;;;3.45;1.77;;;;;;;21.29;43.05;101325.84;4976728;28;97495;-77
2024/02/13 00:29:52;;;;;;;3.92;1.65;;;;;;;21.29;42.81;101323.19;4974771;28;96789;-77
2024/02/13 00:32:18;;;;;;;3.28;2.25;;;;;;;21.30;42.88;101330.25;4965693;28;97130;-77
2024/02/13 00:34:44;;;;;;;3.90;1.55;;;;;;;21.30;42.71;101324.94;4966192;28;97493;-77
2024/02/13 00:37:10;;;;;;;3.42;2.03;;;;;;;21.29;43.00;101328.50;4960785;28;97060;-77
2024/02/13 00:39:37;;;;;;;3.95;1.65;;;;;;;21.29;42.55;101331.16;4958283;28;97277;-77
2024/02/13 00:42:03;;;;;;;3.47;1.77;;;;;;;21.30;42.53;101337.31;4961063;28;96968;-77
2024/02/13 00:44:28;;;;;;;2.92;2.05;;;;;;;21.29;42.96;101333.81;4955565;28;97282;-77
2024/02/13 00:46:56;;;;;;;3.00;1.73;;;;;;;21.29;42.83;101339.09;4963968;28;125625;-76
2024/02/13 00:49:21;;;;;;;4.50;1.70;;;;;;;21.29;42.69;101340.91;4960565;28;97273;-77
2024/02/13 00:51:46;;;;;;;3.53;1.60;;;;;;;21.29;42.62;101344.41;4964848;28;96837;-77
2024/02/13 00:54:13;;;;;;;3.42;1.50;;;;;;;21.28;42.70;101345.34;4953250;28;100341;-77
2024/02/13 00:56:40;;;;;;;3.05;2.33;;;;;;;21.29;42.78;101347.06;4963605;28;98540;-77
2024/02/13 00:59:07;;;;;;;2.53;1.40;;;;;;;21.29;42.71;101343.56;4964406;28;97412;-77
2024/02/13 01:01:34;;;;;;;2.90;2.00;;;;;;;21.28;42.46;101342.69;4962612;28;97408;-77
2024/02/13 01:04:00;;;;;;;3.85;1.70;;;;;;;21.28;42.67;101353.31;4955666;28;97603;-77
2024/02/13 01:06:27;;;;;;;3.15;1.70;;;;;;;21.28;42.68;101350.66;4963999;28;97756;-77
2024/02/13 01:08:52;;;;;;;2.50;1.52;;;;;;;21.28;42.74;101348.00;4965367;28;97837;-77
2024/02/13 01:11:18;;;;;;;2.85;1.55;;;;;;;21.28;42.87;101349.75;4970884;28;97248;-77
2024/02/13 01:13:44;;;;;;;3.20;1.85;;;;;;;21.28;42.67;101355.06;4955693;28;103499;-77
2024/02/13 01:16:09;;;;;;;2.92;2.08;;;;;;;21.28;42.48;101357.72;4960364;28;97576;-76
2024/02/13 01:18:35;;;;;;;3.47;2.00;;;;;;;21.28;42.87;101357.72;4965216;28;97818;-77
2024/02/13 01:21:00;;;;;;;2.20;1.20;;;;;;;21.27;42.83;101354.19;4962619;28;98758;-77
2024/02/13 01:23:27;;;;;;;3.58;1.75;;;;;;;21.27;42.92;101359.50;4967085;28;97101;-77
2024/02/13 01:25:52;;;;;;;2.88;1.65;;;;;;;21.28;42.89;101363.03;4969318;28;97292;-77
2024/02/13 01:28:19;;;;;;;2.88;1.30;;;;;;;21.27;42.50;101369.25;4967119;28;105607;-76
2024/02/13 01:30:45;;;;;;;3.42;1.90;;;;;;;21.27;42.92;101358.63;4966353;28;97727;-77
2024/02/13 01:33:11;;;;;;;3.25;2.10;;;;;;;21.26;42.79;101371.00;4963177;28;96811;-77
2024/02/13 01:35:41;;;;;;;2.53;1.88;;;;;;;21.26;42.62;101372.81;4968625;28;125836;-77
2024/02/13 01:38:09;;;;;;;2.53;1.23;;;;;;;21.25;42.93;101371.06;4960838;28;97910;-77
2024/02/13 01:40:36;;;;;;;2.75;1.35;;;;;;;21.25;42.49;101363.13;4968410;28;96824;-77
2024/02/13 01:43:02;;;;;;;2.47;1.50;;;;;;;21.25;42.66;101368.41;4970178;28;99145;-77
2024/02/13 01:45:28;;;;;;;2.88;1.35;;;;;;;21.26;42.65;101370.16;4966346;28;97511;-77
2024/02/13 01:47:55;;;;;;;2.70;1.55;;;;;;;21.25;42.50;101368.41;4960365;28;98272;-77
2024/02/13 01:50:20;;;;;;;2.70;1.45;;;;;;;21.24;42.87;101364.88;4958558;28;97090;-77
2024/02/13 01:52:48;;;;;;;2.75;1.25;;;;;;;21.25;42.62;101368.41;4964821;28;96853;-77
2024/02/13 01:55:16;;;;;;;3.13;1.40;;;;;;;21.25;42.69;101363.13;4960729;28;97875;-77
2024/02/13 01:57:43;;;;;;;2.40;1.30;;;;;;;21.25;42.77;101363.13;4961331;28;99849;-77
2024/02/13 02:00:13;;;;;;;2.47;1.20;;;;;;;21.25;42.44;101369.28;4961524;28;97541;-77
2024/02/13 02:02:44;;;;;;;2.97;2.05;;;;;;;21.24;42.57;101362.22;4966134;28;96856;-76
2024/02/13 02:05:13;;;;;;;3.30;1.38;;;;;;;21.24;42.85;101371.97;4967764;28;99605;-77
2024/02/13 02:07:43;;;;;;;2.65;1.67;;;;;;;21.24;42.79;101367.53;4965970;28;97310;-77
2024/02/13 02:10:09;;;;;;;3.08;1.92;;;;;;;21.23;42.71;101363.16;4964123;28;97669;-77
2024/02/13 02:12:35;;;;;;;2.40;1.80;;;;;;;21.23;42.68;101370.22;4963535;28;97113;-76
2024/02/13 02:15:02;;;;;;;2.10;1.13;;;;;;;21.23;42.82;101372.88;4967617;28;98626;-77
2024/02/13 02:17:27;;;;;;;2.22;1.65;;;;;;;21.22;42.47;101374.66;4966595;28;97485;-77
2024/02/13 02:19:52;;;;;;;2.67;1.50;;;;;;;21.21;42.68;101372.94;4959399;28;115497;-77
2024/02/13 02:22:18;;;;;;;2.50;1.30;;;;;;;21.22;42.70;101382.63;4963256;28;111594;-77
2024/02/13 02:24:43;;;;;;;2.85;1.23;;;;;;;21.22;42.74;101381.75;4958399;28;97979;-77
2024/02/13 02:27:09;;;;;;;2.20;1.30;;;;;;;21.21;42.69;101383.53;4970450;28;97225;-77
2024/02/13 02:29:36;;;;;;;1.85;1.05;;;;;;;21.22;42.78;101387.06;4960506;28;99281;-77
2024/02/13 02:32:03;;;;;;;2.63;1.30;;;;;;;21.20;42.58;101381.78;4950267;28;98203;-77
2024/02/13 02:34:28;;;;;;;2.38;1.30;;;;;;;21.21;42.68;101380.88;4966886;28;96897;-77
2024/02/13 02:36:54;;;;;;;2.40;1.23;;;;;;;21.20;42.58;101384.44;4965008;28;109024;-77
2024/02/13 02:39:19;;;;;;;3.95;2.00;;;;;;;21.21;42.43;101390.59;4960198;28;112782;-77
2024/02/13 02:41:46;;;;;;;2.63;1.77;;;;;;;21.20;42.53;101392.41;4966309;28;96880;-77
2024/02/13 02:44:12;;;;;;;3.25;1.40;;;;;;;21.20;42.60;101392.41;4967953;28;97460;-77
2024/02/13 02:46:38;;;;;;;2.05;1.10;;;;;;;21.20;42.53;101394.19;4967101;28;97278;-77
2024/02/13 02:49:05;;;;;;;3.05;1.55;;;;;;;21.20;42.62;101391.53;4963640;28;96920;-77
2024/02/13 02:51:31;;;;;;;2.60;1.20;;;;;;;21.19;42.54;101390.63;4963405;28;97111;-77
2024/02/13 02:53:56;;;;;;;2.72;1.30;;;;;;;21.20;42.55;101391.53;4960180;28;97503;-77
2024/02/13 02:56:21;;;;;;;2.72;1.20;;;;;;;21.19;42.71;101401.25;4968599;28;100054;-76
2024/02/13 02:58:47;;;;;;;3.10;1.25;;;;;;;21.19;42.68;101395.06;4968269;28;96767;-77
2024/02/13 03:01:12;;;;;;;4.70;1.95;;;;;;;21.19;42.73;101400.38;4965861;28;101838;-77
2024/02/13 03:03:39;;;;;;;2.70;1.10;;;;;;;21.18;42.51;101396.88;4971399;28;98348;-77
2024/02/13 03:06:05;;;;;;;2.60;1.00;;;;;;;21.19;42.28;101395.94;4962696;28;98544;-77
2024/02/13 03:08:31;;;;;;;2.95;1.98;;;;;;;21.18;42.41;101390.69;4962699;28;96750;-77
2024/02/13 03:10:56;;;;;;;1.67;0.90;;;;;;;21.18;42.43;101396.88;4967606;28;97607;-76
2024/02/13 03:13:21;;;;;;;2.85;1.20;;;;;;;21.18;42.54;101391.56;4966225;28;97555;-77
2024/02/13 03:15:47;;;;;;;2.08;1.10;;;;;;;21.18;42.37;101393.34;4965574;28;98427;-77
2024/02/13 03:18:12;;;;;;;3.40;1.33;;;;;;;21.18;42.73;101393.34;4966681;28;96747;-77
2024/02/13 03:20:39;;;;;;;1.90;0.95;;;;;;;21.17;42.58;101396.91;4963884;28;105444;-77
2024/02/13 03:23:04;;;;;;;2.58;1.60;;;;;;;21.17;42.28;101388.94;4964911;28;97476;-77
2024/02/13 03:25:30;;;;;;;2.03;1.20;;;;;;;21.17;42.68;101397.75;4974235;28;100492;-77
2024/02/13 03:27:55;;;;;;;2.63;1.73;;;;;;;21.17;42.62;101394.25;4960244;28;98101;-77
2024/02/13 03:30:21;;;;;;;2.25;1.80;;;;;;;21.16;42.70;101393.38;4968431;28;96983;-77
2024/02/13 03:32:47;;;;;;;2.47;1.77;;;;;;;21.17;42.51;101400.41;4964914;28;98802;-77
2024/02/13 03:35:13;;;;;;;2.65;1.80;;;;;;;21.16;42.45;101390.72;4966371;28;97501;-77
2024/02/13 03:37:38;;;;;;;2.95;1.10;;;;;;;21.16;42.31;101388.06;4965502;28;96883;-77
2024/02/13 03:40:06;;;;;;;2.28;1.65;;;;;;;21.16;42.44;101398.69;4970356;28;96968;-77
2024/02/13 03:42:32;;;;;;;2.63;1.05;;;;;;;21.16;42.61;101395.13;4955201;28;96817;-77
2024/02/13 03:44:58;;;;;;;2.00;1.00;;;;;;;21.15;42.50;101396.06;4968780;28;97166;-77
2024/02/13 03:47:23;;;;;;;2.70;1.70;;;;;;;21.15;42.66;101399.59;4972113;28;97308;-77
2024/02/13 03:49:48;;;;;;;2.47;1.50;;;;;;;21.15;42.38;101399.59;4966323;28;97188;-77
2024/02/13 03:52:14;;;;;;;2.85;1.50;;;;;;;21.15;42.38;101407.53;4972889;28;102510;-77
2024/02/13 03:54:40;;;;;;;2.30;1.20;;;;;;;21.14;42.32;101408.47;4966671;28;98789;-77
2024/02/13 03:57:06;;;;;;;2.25;0.80;;;;;;;21.15;42.24;101404.03;4965253;28;96873;-76
2024/02/13 03:59:31;;;;;;;3.33;1.92;;;;;;;21.14;42.60;101410.22;4960849;28;97803;-77
2024/02/13 04:01:58;;;;;;;2.42;1.00;;;;;;;21.15;42.33;101415.50;4963229;28;97142;-77
2024/02/13 04:04:23;;;;;;;2.33;1.75;;;;;;;21.14;42.30;101420.84;4961441;28;99166;-77
2024/02/13 04:06:49;;;;;;;2.38;1.30;;;;;;;21.14;42.51;101424.38;4963509;28;97325;-77
2024/02/13 04:09:14;;;;;;;2.70;1.90;;;;;;;21.14;42.33;101426.13;4965780;28;97123;-77
2024/02/13 04:11:43;;;;;;;2.40;1.70;;;;;;;21.14;42.42;101424.38;4961218;28;114336;-77
2024/02/13 04:14:11;;;;;;;2.78;1.23;;;;;;;21.13;42.52;101425.28;4964747;28;97818;-77
2024/02/13 04:16:39;;;;;;;2.17;1.42;;;;;;;21.13;42.46;101427.06;4958768;28;99209;-77
2024/02/13 04:19:04;;;;;;;2.30;1.52;;;;;;;21.14;42.47;101426.13;4964245;28;98149;-77
2024/02/13 04:21:29;;;;;;;2.33;1.13;;;;;;;21.13;42.47;101425.28;4941748;28;100194;-76
2024/02/13 04:23:55;;;;;;;2.10;1.67;;;;;;;21.13;42.29;101427.06;4965601;28;99988;-77
2024/02/13 04:26:20;;;;;;;2.13;1.40;;;;;;;21.13;42.40;101427.06;4957070;28;103803;-77
2024/02/13 04:28:46;;;;;;;2.35;1.85;;;;;;;21.12;42.59;101428.81;4970209;28;97075;-77
2024/02/13 04:31:11;;;;;;;2.13;0.93;;;;;;;21.11;42.55;101432.41;4951836;28;99607;-77
2024/02/13 04:33:36;;;;;;;2.45;1.00;;;;;;;21.11;42.34;101435.91;4962837;28;99682;-77
2024/02/13 04:36:03;;;;;;;2.53;1.10;;;;;;;21.10;42.58;101436.84;4965149;28;96839;-77
2024/02/13 04:38:31;;;;;;;2.13;1.02;;;;;;;21.10;42.22;101442.13;4963500;28;97281;-77
2024/02/13 04:40:56;;;;;;;2.20;1.42;;;;;;;21.11;42.23;101438.56;4963040;28;97576;-77
2024/02/13 04:43:22;;;;;;;3.00;1.65;;;;;;;21.10;42.46;101442.13;4969454;28;96730;-76
2024/02/13 04:45:47;;;;;;;2.00;0.90;;;;;;;21.11;42.54;101443.00;4961930;28;97132;-77
2024/02/13 04:48:14;;;;;;;2.30;1.67;;;;;;;21.10;42.20;101441.25;4966603;28;96909;-77
2024/02/13 04:50:40;;;;;;;1.92;0.95;;;;;;;21.09;42.31;101445.69;4964235;28;126568;-77
2024/02/13 04:53:05;;;;;;;2.55;1.02;;;;;;;21.09;42.41;101450.13;4961788;28;110115;-77
2024/02/13 04:55:32;;;;;;;2.10;1.10;;;;;;;21.09;42.25;101443.03;4963079;28;96822;-77
2024/02/13 04:57:58;;;;;;;2.28;1.58;;;;;;;21.09;42.60;101447.47;4965171;28;97562;-77
2024/02/13 05:00:28;;;;;;;2.25;1.10;;;;;;;21.09;42.20;101451.00;4964144;28;98318;-77
2024/02/13 05:03:16;;;;;;;1.70;0.90;;;;;;;21.09;42.46;101448.34;4943968;28;100364;-77
2024/02/13 05:08:30;;;;;;;2.60;1.00;;;;;;;21.05;42.45;101440.47;4959167;28;97702;-77
2024/02/13 05:10:56;;;;;;;2.97;1.73;;;;;;;21.05;42.42;101436.06;4962617;28;98046;-77
2024/02/13 05:13:22;;;;;;;2.75;1.52;;;;;;;21.07;42.27;101433.38;4968494;28;97182;-77
2024/02/13 05:15:48;;;;;;;2.20;1.00;;;;;;;21.07;42.41;101433.38;4958267;28;96816;-77
2024/02/13 05:18:13;;;;;;;1.83;1.33;;;;;;;21.07;42.30;101433.38;4963260;28;96922;-77
2024/02/13 05:20:39;;;;;;;1.85;1.45;;;;;;;21.06;42.20;101435.13;4964811;28;97774;-77
2024/02/13 05:23:06;;;;;;;2.17;1.45;;;;;;;21.06;42.07;101445.75;4957901;28;97333;-77
2024/02/13 05:25:32;;;;;;;1.70;1.00;;;;;;;21.06;42.33;101440.44;4961830;28;98316;-77
2024/02/13 05:27:59;;;;;;;2.17;1.42;;;;;;;21.06;42.29;101447.53;4962124;28;98228;-77
2024/02/13 05:30:25;;;;;;;2.35;1.30;;;;;;;21.06;42.48;101442.22;4966146;28;100644;-77
2024/02/13 05:32:51;;;;;;;2.00;0.90;;;;;;;21.06;42.06;101443.09;4961330;28;111556;-77
2024/02/13 05:35:17;;;;;;;2.10;1.40;;;;;;;21.05;42.29;101444.00;4966753;28;96849;-77
2024/02/13 05:37:42;;;;;;;3.28;0.80;;;;;;;21.05;42.44;101444.00;4945348;28;96964;-77
2024/02/13 05:40:08;;;;;;;1.58;0.80;;;;;;;21.05;42.24;101441.38;4964793;28;97396;-77
2024/02/13 05:42:35;;;;;;;2.20;1.08;;;;;;;21.05;42.21;101443.13;4962573;28;99339;-77
2024/02/13 05:45:00;;;;;;;2.00;1.10;;;;;;;21.05;42.48;101444.00;4956971;28;97171;-77
2024/02/13 05:47:31;;;;;;;1.90;1.13;;;;;;;21.05;42.23;101448.44;4971473;28;96770;-77
2024/02/13 05:49:57;;;;;;;2.60;1.38;;;;;;;21.04;42.35;101447.56;4964464;28;97989;-76
2024/02/13 05:52:23;;;;;;;2.35;1.35;;;;;;;21.04;42.00;101447.56;4960140;28;97958;-77
2024/02/13 05:54:48;;;;;;;1.88;1.38;;;;;;;21.05;42.03;101451.06;4963591;28;96928;-77
2024/02/13 05:57:13;;;;;;;1.90;1.25;;;;;;;21.04;42.56;101447.56;4963743;28;97203;-77
2024/02/13 05:59:40;;;;;;;2.10;1.58;;;;;;;21.04;42.43;101452.00;4955082;28;100330;-77
2024/02/13 06:02:05;;;;;;;1.85;0.98;;;;;;;21.04;42.32;101446.69;4942760;28;97979;-77
2024/02/13 06:04:31;;;;;;;1.90;0.90;;;;;;;21.03;42.26;101452.91;4965462;28;117662;-77
2024/02/13 06:06:56;;;;;;;1.98;1.52;;;;;;;21.04;42.00;101454.66;4964549;28;96941;-77
2024/02/13 06:09:24;;;;;;;1.42;0.82;;;;;;;21.02;42.08;101454.69;4959503;28;97350;-77
2024/02/13 06:11:53;;;;;;;2.28;1.67;;;;;;;21.03;42.46;101464.41;4966825;28;97926;-77
2024/02/13 06:14:18;;;;;;;2.35;1.50;;;;;;;21.03;42.49;101460.84;4962176;28;97064;-77
2024/02/13 06:16:44;;;;;;;2.70;1.77;;;;;;;21.02;42.44;101459.97;4965520;28;97438;-77
2024/02/13 06:19:10;;;;;;;2.38;1.50;;;;;;;21.02;42.44;101457.34;4959538;28;96944;-77
2024/02/13 06:21:36;;;;;;;2.58;1.63;;;;;;;21.01;42.42;101454.72;4961675;28;97264;-77
2024/02/13 06:24:02;;;;;;;2.13;1.35;;;;;;;21.03;42.10;101466.16;4967648;28;97269;-76
2024/02/13 06:26:27;;;;;;;2.13;1.52;;;;;;;21.01;42.09;101460.88;4950032;28;97373;-77
2024/02/13 06:28:54;;;;;;;2.33;1.65;;;;;;;21.01;42.06;101460.88;4963572;28;97482;-77
2024/02/13 06:31:19;;;;;;;1.73;0.90;;;;;;;21.01;42.29;101466.19;4962061;28;97551;-77
2024/02/13 06:33:45;;;;;;;2.08;1.45;;;;;;;21.01;42.22;101470.63;4963925;28;98157;-77
2024/02/13 06:36:10;;;;;;;1.77;0.90;;;;;;;21.01;42.12;101463.53;4965657;28;96907;-77
2024/02/13 06:38:36;;;;;;;2.08;1.10;;;;;;;21.01;42.12;101462.66;4970142;28;96915;-77
2024/02/13 06:41:05;;;;;;;2.10;1.00;;;;;;;21.01;42.12;101474.13;4960070;28;96840;-77
2024/02/13 06:43:34;;;;;;;1.80;1.45;;;;;;;21.00;42.30;101472.41;4966247;28;98362;-77
2024/02/13 06:46:00;;;;;;;3.05;1.80;;;;;;;20.99;42.13;101478.59;4967635;28;96924;-77
2024/02/13 06:48:26;;;;;;;2.10;1.40;;;;;;;21.00;42.32;101474.16;4965674;28;97124;-77
2024/02/13 06:50:51;;;;;;;2.00;1.42;;;;;;;20.99;41.87;101480.41;4941087;28;114975;-77
2024/02/13 06:53:17;;;;;;;1.45;0.93;;;;;;;20.99;42.24;101489.22;4967222;28;97220;-77
2024/02/13 06:55:42;;;;;;;2.10;0.90;;;;;;;20.99;42.10;101486.56;4966254;28;97601;-77
2024/02/13 06:58:08;;;;;;;2.30;1.98;;;;;;;20.98;42.25;101484.84;4967410;28;98136;-77
2024/02/13 07:00:33;;;;;;;2.47;1.80;;;;;;;20.99;42.28;101491.00;4966727;28;99704;-77
2024/02/13 07:02:59;;;;;;;1.60;1.45;;;;;;;20.98;42.12;101500.75;4967824;28;97136;-76
2024/02/13 07:05:26;;;;;;;1.88;1.15;;;;;;;20.98;41.88;101500.75;4960886;28;99296;-76
2024/02/13 07:07:51;;;;;;;1.58;0.75;;;;;;;20.97;42.09;101501.63;4958982;28;97832;-77
2024/02/13 07:10:17;;;;;;;1.33;0.80;;;;;;;20.98;42.26;101511.34;4965504;28;97319;-77
2024/02/13 07:12:43;;;;;;;1.75;1.40;;;;;;;20.97;42.47;101509.59;4970917;28;96624;-77
2024/02/13 07:15:09;;;;;;;2.40;1.88;;;;;;;20.97;41.94;101506.94;4969909;28;98943;-77
2024/02/13 07:17:34;;;;;;;1.77;1.00;;;;;;;20.98;42.14;101507.81;4961664;28;97676;-77
2024/02/13 07:20:00;;;;;;;2.38;1.33;;;;;;;20.97;41.88;101506.94;4963514;28;96980;-76
2024/02/13 07:22:26;;;;;;;2.25;1.45;;;;;;;20.97;42.26;101506.94;4974991;28;100265;-77
2024/02/13 07:24:51;;;;;;;1.90;0.82;;;;;;;20.98;41.90;101508.69;4962233;28;96956;-77
2024/02/13 07:27:17;;;;;;;2.22;0.93;;;;;;;20.97;42.15;101511.38;4965597;28;97580;-77
2024/02/13 07:29:43;;;;;;;1.63;0.90;;;;;;;20.96;41.94;101515.78;4976951;28;97262;-77
2024/02/13 07:32:13;;;;;;;2.13;1.42;;;;;;;20.98;42.08;101519.31;4967920;28;96814;-77
2024/02/13 07:34:40;;;;;;;1.95;0.80;;;;;;;20.96;42.03;101521.09;4965231;28;96702;-77
2024/02/13 07:37:07;;;;;;;2.40;1.55;;;;;;;20.98;42.03;101527.25;4969583;28;97931;-77
2024/02/13 07:39:33;;;;;;;2.67;0.82;;;;;;;20.98;42.28;101527.25;4960255;28;97569;-77
2024/02/13 07:41:59;;;;;;;1.83;0.75;;;;;;;20.96;41.96;101530.84;4960701;28;97129;-77
2024/02/13 07:44:27;;;;;;;1.50;0.80;;;;;;;20.98;42.21;101535.22;4959356;28;96985;-77
2024/02/13 07:46:54;;;;;;;1.63;0.98;;;;;;;20.96;41.93;101531.69;4961537;28;97586;-77
2024/02/13 07:49:19;;;;;;;2.10;1.40;;;;;;;20.97;41.85;101533.47;4966405;28;97714;-77
2024/02/13 07:51:45;;;;;;;2.47;1.58;;;;;;;20.97;41.88;101527.28;4961957;28;97348;-77
2024/02/13 07:54:12;;;;;;;1.90;1.58;;;;;;;20.98;42.22;101540.53;4963927;28;97442;-77
2024/02/13 07:56:40;;;;;;;1.70;1.42;;;;;;;20.98;42.27;101539.63;4982839;28;99534;-77
2024/02/13 07:59:05;;;;;;;2.35;1.92;;;;;;;20.97;41.82;101532.59;4966723;28;97680;-77
2024/02/13 08:01:31;;;;;;;1.75;0.65;;;;;;;20.98;42.28;101544.94;4968252;28;96979;-77
2024/02/13 08:03:57;;;;;;;1.33;0.70;;;;;;;20.98;42.03;101540.53;4964096;28;97112;-76
2024/02/13 08:06:22;;;;;;;1.60;0.65;;;;;;;20.97;41.85;101544.06;4964337;28;97561;-77
2024/02/13 08:08:49;;;;;;;1.55;1.10;;;;;;;20.99;41.83;101541.38;4965626;28;97459;-76
2024/02/13 08:11:16;;;;;;;1.63;0.80;;;;;;;20.99;42.18;101544.03;4953789;28;96842;-77
2024/02/13 08:13:42;;;;;;;2.38;1.40;;;;;;;20.99;42.17;101550.22;4960649;28;97269;-77
2024/02/13 08:16:08;;;;;;;2.00;1.45;;;;;;;20.99;42.14;101541.38;4964821;28;97036;-77
2024/02/13 08:18:34;;;;;;;2.13;1.10;;;;;;;21.00;41.99;101545.78;4959129;28;97733;-77
2024/02/13 08:21:03;;;;;;;1.40;0.80;;;;;;;21.01;41.85;101558.13;4956977;28;97159;-77
2024/02/13 08:23:33;;;;;;;;;;;;;;;20.92;42.14;101548.59;4963300;28;97249;-77
2024/02/13 08:25:58;;;;;;;2.03;1.20;;;;;;;20.93;41.82;101560.94;4963050;28;97847;-77
2024/02/13 08:28:24;;;;;;;2.42;1.30;;;;;;;20.95;41.90;101560.94;4960275;28;99817;-77
2024/02/13 08:30:49;;;;;;;1.58;0.82;;;;;;;20.96;41.88;101570.63;4962098;28;97206;-77
2024/02/13 08:33:16;;;;;;;2.28;1.45;;;;;;;20.96;41.92;101571.47;4963685;28;96863;-77
2024/02/13 08:35:42;;;;;;;2.22;1.33;;;;;;;20.97;41.88;101567.06;4963026;28;97438;-77
2024/02/13 08:38:08;;;;;;;2.33;1.52;;;;;;;20.98;41.86;101574.09;4966640;28;97102;-77
2024/02/13 08:40:33;;;;;;;2.08;0.73;;;;;;;20.99;41.83;101570.56;4959629;28;97391;-77
2024/02/13 08:42:59;;;;;;;1.65;0.80;;;;;;;20.98;41.81;101566.16;4966472;28;97188;-77
2024/02/13 08:45:24;;;;;;;1.35;0.70;;;;;;;20.98;41.98;101566.16;4966191;28;113590;-77
2024/02/13 08:47:50;;;;;;;1.73;0.70;;;;;;;20.99;41.90;101570.56;4967865;28;97409;-77
2024/02/13 08:50:17;;;;;;;2.00;0.80;;;;;;;20.98;41.94;101567.03;4965945;28;96752;-76
2024/02/13 08:52:42;;;;;;;2.22;1.42;;;;;;;20.99;42.00;101579.38;4964019;28;97098;-77
2024/02/13 08:55:08;;;;;;;2.03;1.48;;;;;;;20.99;41.71;101571.44;4962773;28;97090;-77
2024/02/13 08:57:35;;;;;;;1.70;1.35;;;;;;;20.99;41.77;101575.88;4955547;28;97247;-77
2024/02/13 09:00:01;;;;;;;2.47;1.45;;;;;;;21.00;41.71;101577.59;4960975;28;96979;-77
2024/02/13 09:02:27;;;;;;;1.13;0.68;;;;;;;20.99;41.78;101584.69;4973492;28;97003;-75
2024/02/13 09:04:52;;;;;;;1.77;1.30;;;;;;;21.01;42.10;101571.41;4965453;28;114904;-77
2024/02/13 09:07:17;;;;;;;1.60;0.90;;;;;;;21.01;41.91;101568.75;4959229;28;103110;-77
2024/02/13 09:09:43;;;;;;;1.58;0.82;;;;;;;20.99;41.92;101574.09;4957153;28;97887;-77
2024/02/13 09:12:08;;;;;;;1.95;1.48;;;;;;;21.00;41.84;101583.78;4964956;28;98651;-77
2024/02/13 09:14:34;;;;;;;2.10;1.17;;;;;;;21.00;41.76;101575.84;4962945;28;112322;-76
2024/02/13 09:17:00;;;;;;;2.03;1.40;;;;;;;21.01;41.69;101582.00;4964363;28;97442;-77
2024/02/13 09:19:26;;;;;;;1.50;0.70;;;;;;;21.01;41.79;101585.53;4963370;28;96767;-77
2024/02/13 09:21:52;;;;;;;1.73;0.63;;;;;;;21.02;41.75;101589.06;4965524;28;97368;-77
2024/02/13 09:24:18;;;;;;;1.65;1.20;;;;;;;21.02;41.97;101592.59;4968568;28;99861;-77
2024/02/13 09:26:43;;;;;;;2.15;1.33;;;;;;;21.02;41.65;101595.25;4968066;28;97411;-77
2024/02/13 09:29:09;;;;;;;1.92;0.90;;;;;;;21.02;41.72;101592.59;4958526;28;97081;-77
2024/02/13 09:31:34;;;;;;;2.25;0.90;;;;;;;21.02;42.05;101587.28;4965995;28;97452;-77
2024/02/13 09:34:06;;;;;;;1.67;0.90;;;;;;;21.03;41.50;101597.00;4959727;28;97426;-79
2024/02/13 09:36:32;;;;;;;1.92;0.70;;;;;;;21.03;41.89;101594.34;4941585;28;98068;-77
2024/02/13 09:39:08;;;;;;;1.65;0.80;;;;;;;21.02;41.57;101597.91;4942955;28;97641;-79
2024/02/13 09:41:40;;;;;;;1.70;0.73;;;;;;;21.03;42.01;101594.34;4953868;28;97325;-78
2024/02/13 09:44:06;;;;;;;1.55;0.82;;;;;;;21.04;41.74;101590.78;4973144;28;96897;-79
2024/02/13 09:46:36;;;;;;;1.90;1.45;;;;;;;21.05;41.97;101587.25;4971241;28;97327;-79
2024/02/13 09:49:04;;;;;;;1.95;1.20;;;;;;;21.05;41.81;101595.19;4974504;28;96823;-77
2024/02/13 09:51:33;;;;;;;2.33;1.30;;;;;;;21.05;41.81;101597.84;4972791;28;97099;-79
2024/02/13 09:54:01;;;;;;;;;;;;;;;21.00;41.78;101604.13;4947441;28;100120;-79
2024/02/13 09:56:27;;;;;;;2.38;1.00;;;;;;;21.00;42.12;101602.38;4965341;28;97133;-76
2024/02/13 09:58:54;;;;;;;2.08;0.80;;;;;;;21.04;41.83;101587.25;4969783;28;97046;-77
2024/02/13 10:01:19;;;;;;;1.10;0.60;;;;;;;21.05;41.90;101597.84;4974591;28;97084;-77
2024/02/13 10:03:46;;;;;;;1.35;0.70;;;;;;;21.07;41.79;101603.13;4966867;28;98656;-77
2024/02/13 10:06:11;;;;;;;2.22;0.90;;;;;;;21.06;41.83;101602.22;4972753;28;97076;-77
2024/02/13 10:08:39;;;;;;;1.30;0.70;;;;;;;21.08;41.77;101602.22;4969982;28;96822;-76
2024/02/13 10:11:08;;;;;;;2.30;1.60;;;;;;;21.08;41.69;101611.03;4961414;28;97564;-77
2024/02/13 10:13:39;;;;;;;1.70;1.23;;;;;;;21.08;41.47;101600.41;4966573;28;98158;-76
2024/02/13 10:16:18;;;;;;;1.48;0.70;;;;;;;21.08;41.79;101603.06;4964768;28;97139;-77
2024/02/13 10:18:46;;;;;;;1.42;1.23;;;;;;;21.09;41.92;101604.84;4961687;28;97204;-76
2024/02/13 10:21:11;;;;;;;1.73;1.10;;;;;;;21.10;41.69;101609.25;4964745;28;97173;-76
2024/02/13 10:23:39;;;;;;;2.20;0.80;;;;;;;21.10;41.62;101608.34;4963617;28;114610;-76
2024/02/13 10:26:10;;;;;;;1.80;1.38;;;;;;;21.10;41.53;101614.56;4961517;28;98309;-76
2024/02/13 10:28:40;;;;;;;1.67;1.38;;;;;;;21.11;41.92;101612.78;4968170;28;96762;-77
2024/02/13 10:31:07;;;;;;;1.92;0.80;;;;;;;21.11;41.53;101600.38;4962278;28;98013;-76
2024/02/13 10:33:39;;;;;;;1.17;0.70;;;;;;;21.11;41.72;101607.47;4967973;28;99082;-77
2024/02/13 10:36:06;;;;;;;1.95;1.60;;;;;;;21.11;41.60;101607.47;4968714;28;97279;-76
2024/02/13 10:38:34;;;;;;;2.55;1.33;;;;;;;21.11;41.88;101610.97;4964324;28;97033;-76
2024/02/13 10:41:01;;;;;;;1.23;0.70;;;;;;;21.12;41.85;101611.84;4969070;28;97819;-75
2024/02/13 10:43:28;;;;;;;1.50;0.80;;;;;;;21.12;41.63;101603.88;4964116;28;97402;-76
2024/02/13 10:45:58;;;;;;;1.75;0.63;;;;;;;21.12;41.50;101606.53;4969861;28;97193;-76
2024/02/13 10:48:39;;;;;;;1.23;0.65;;;;;;;21.13;41.59;101610.09;4971539;28;97107;-76
2024/02/13 10:51:08;;;;;;;2.05;1.10;;;;;;;21.12;41.68;101609.19;4966134;28;97253;-76
2024/02/13 10:53:34;;;;;;;1.88;1.23;;;;;;;21.13;41.70;101603.00;4966902;28;97229;-75
2024/02/13 10:56:02;;;;;;;1.83;0.82;;;;;;;21.14;41.58;101598.56;4969835;28;97821;-76
2024/02/13 10:58:32;;;;;;;2.15;1.33;;;;;;;21.15;41.93;101605.63;4952462;28;97176;-76
2024/02/13 11:01:03;;;;;;;1.50;0.70;;;;;;;21.14;41.73;101607.41;4977071;28;98178;-76
2024/02/13 11:03:29;;;;;;;1.80;1.10;;;;;;;21.15;41.64;101610.94;4954901;28;98485;-76
2024/02/13 11:05:54;;;;;;;2.17;0.60;;;;;;;21.15;41.45;101611.78;4971312;28;97264;-76
2024/02/13 11:08:20;;;;;;;1.40;0.60;;;;;;;21.16;41.64;101610.00;4966579;28;99089;-77
2024/02/13 11:10:46;;;;;;;1.75;1.17;;;;;;;21.17;41.50;101619.72;4958455;28;99388;-76
2024/02/13 11:13:11;;;;;;;1.40;0.70;;;;;;;21.17;41.83;101611.78;4965962;28;100665;-76
2024/02/13 11:15:39;;;;;;;1.42;0.52;;;;;;;21.17;41.55;101617.94;4964222;28;97726;-76
2024/02/13 11:18:13;;;;;;;1.23;0.57;;;;;;;21.17;41.49;101614.41;4963720;28;96745;-76
2024/02/13 11:20:43;;;;;;;1.35;0.70;;;;;;;21.17;41.90;101614.41;4954996;28;96643;-77
2024/02/13 11:23:15;;;;;;;2.80;1.45;;;;;;;21.18;41.47;101606.44;4961235;28;97534;-77